createdAt,value
2022-08-30T00:00:36.544Z,48.57
2022-08-30T00:03:06.950Z,48.29
2022-08-30T00:05:34.656Z,48.58
2022-08-30T00:08:01.735Z,48.64
2022-08-30T00:10:29.745Z,49.00
2022-08-30T00:12:58.168Z,48.85
2022-08-30T00:15:25.430Z,48.43
2022-08-30T00:17:52.029Z,48.75
2022-08-30T00:20:22.546Z,48.96
2022-08-30T00:22:49.061Z,48.84
2022-08-30T00:25:16.582Z,48.98
2022-08-30T00:27:43.748Z,49.16
2022-08-30T00:30:13.284Z,49.00
2022-08-30T00:32:40.525Z,49.21
2022-08-30T00:35:09.402Z,49.48
2022-08-30T00:37:36.123Z,49.22
2022-08-30T00:40:05.610Z,49.52
2022-08-30T00:42:33.076Z,49.33
2022-08-30T00:45:31.644Z,49.60
2022-08-30T00:47:59.401Z,49.36
2022-08-30T00:50:32.970Z,49.72
2022-08-30T00:53:01.999Z,49.69
2022-08-30T00:55:30.371Z,49.94
2022-08-30T00:58:02.324Z,50.02
2022-08-30T01:00:31.205Z,50.08
2022-08-30T01:02:58.152Z,50.16
2022-08-30T01:05:30.010Z,50.16
2022-08-30T01:07:56.526Z,49.83
2022-08-30T01:10:23.213Z,50.09
2022-08-30T01:12:49.909Z,50.24
2022-08-30T01:15:19.100Z,50.24
2022-08-30T01:17:47.847Z,50.36
2022-08-30T01:20:27.097Z,50.55
2022-08-30T01:22:53.549Z,50.51
2022-08-30T01:25:24.849Z,50.29
2022-08-30T01:28:01.678Z,50.51
2022-08-30T01:30:29.842Z,50.72
2022-08-30T01:32:59.465Z,50.87
2022-08-30T01:35:28.977Z,50.40
2022-08-30T01:37:56.286Z,50.67
2022-08-30T01:40:22.873Z,51.05
2022-08-30T01:42:50.166Z,50.91
2022-08-30T01:45:21.792Z,51.12
2022-08-30T01:47:50.623Z,50.84
2022-08-30T01:50:17.240Z,51.45
2022-08-30T01:52:43.841Z,51.02
2022-08-30T01:55:10.554Z,51.17
2022-08-30T01:57:37.102Z,51.23
2022-08-30T02:00:07.828Z,51.29
2022-08-30T02:02:38.498Z,51.13
2022-08-30T02:05:06.153Z,51.63
2022-08-30T02:07:32.698Z,51.25
2022-08-30T02:09:59.380Z,51.37
2022-08-30T02:12:25.978Z,51.20
2022-08-30T02:14:57.979Z,51.53
2022-08-30T02:17:24.644Z,51.56
2022-08-30T02:19:51.276Z,51.75
2022-08-30T02:22:18.206Z,51.56
2022-08-30T02:24:46.074Z,51.91
2022-08-30T02:27:12.641Z,51.73
2022-08-30T02:29:39.134Z,51.90
2022-08-30T02:32:05.996Z,51.88
2022-08-30T02:34:35.915Z,51.95
2022-08-30T02:37:02.450Z,52.13
2022-08-30T02:39:29.007Z,52.04
2022-08-30T02:41:55.639Z,52.09
2022-08-30T02:44:22.318Z,52.26
2022-08-30T02:46:48.959Z,51.95
2022-08-30T02:52:05.184Z,52.37
2022-08-30T02:54:33.477Z,52.39
2022-08-30T02:57:04.544Z,52.29
2022-08-30T02:59:31.569Z,52.56
2022-08-30T03:01:58.246Z,52.59
2022-08-30T03:04:26.906Z,52.31
2022-08-30T03:06:54.043Z,52.42
2022-08-30T03:09:20.548Z,52.64
2022-08-30T03:11:47.320Z,52.66
2022-08-30T03:14:13.832Z,52.47
2022-08-30T03:16:40.474Z,52.41
2022-08-30T03:19:07.010Z,52.80
2022-08-30T03:21:33.643Z,52.59
2022-08-30T03:24:01.494Z,52.43
2022-08-30T03:26:27.993Z,52.86
2022-08-30T03:28:54.534Z,52.54
2022-08-30T03:31:21.171Z,52.95
2022-08-30T03:33:50.654Z,52.73
2022-08-30T03:36:17.197Z,52.64
2022-08-30T03:38:43.764Z,52.90
2022-08-30T03:41:10.320Z,52.71
2022-08-30T03:43:41.190Z,52.87
2022-08-30T03:46:11.078Z,52.91
2022-08-30T03:48:37.657Z,53.10
2022-08-30T03:51:06.057Z,52.87
2022-08-30T03:53:34.354Z,53.01
2022-08-30T03:56:00.960Z,53.19
2022-08-30T03:58:27.447Z,52.92
2022-08-30T04:00:54.042Z,53.30
2022-08-30T04:03:25.857Z,53.13
2022-08-30T04:05:56.209Z,53.02
2022-08-30T04:08:23.294Z,53.18
2022-08-30T04:10:49.931Z,53.35
2022-08-30T04:13:22.648Z,53.43
2022-08-30T04:15:49.440Z,53.63
2022-08-30T04:18:16.814Z,53.33
2022-08-30T04:20:43.625Z,53.80
2022-08-30T04:23:14.668Z,53.37
2022-08-30T04:25:42.196Z,53.87
2022-08-30T04:28:09.148Z,53.70
2022-08-30T04:30:40.270Z,53.89
2022-08-30T04:33:07.246Z,53.58
2022-08-30T04:35:33.781Z,53.50
2022-08-30T04:38:00.368Z,53.97
2022-08-30T04:40:26.938Z,54.10
2022-08-30T04:42:54.486Z,53.76
2022-08-30T04:45:22.619Z,54.14
2022-08-30T04:47:49.182Z,54.29
2022-08-30T04:50:18.874Z,54.42
2022-08-30T04:52:45.841Z,54.03
2022-08-30T04:55:20.072Z,54.53
2022-08-30T04:57:46.946Z,54.54
2022-08-30T05:00:14.628Z,54.58
2022-08-30T05:02:42.292Z,54.27
2022-08-30T05:05:31.011Z,54.15
2022-08-30T05:07:57.781Z,54.62
2022-08-30T05:10:25.230Z,54.66
2022-08-30T05:12:51.757Z,54.45
2022-08-30T05:15:19.719Z,54.28
2022-08-30T05:17:46.234Z,54.42
2022-08-30T05:20:12.958Z,54.48
2022-08-30T05:22:41.683Z,54.73
2022-08-30T05:25:14.735Z,54.42
2022-08-30T05:27:41.338Z,54.62
2022-08-30T05:30:08.742Z,54.52
2022-08-30T05:32:35.552Z,54.48
2022-08-30T05:35:06.545Z,54.56
2022-08-30T05:37:33.262Z,54.58
2022-08-30T05:39:59.993Z,54.43
2022-08-30T05:42:26.692Z,54.70
2022-08-30T05:44:57.926Z,54.74
2022-08-30T05:47:24.518Z,54.45
2022-08-30T05:49:51.189Z,54.60
2022-08-30T05:52:18.269Z,54.50
2022-08-30T05:54:45.934Z,54.99
2022-08-30T05:57:12.463Z,54.54
2022-08-30T05:59:39.023Z,54.60
2022-08-30T06:02:07.248Z,54.90
2022-08-30T06:04:36.769Z,54.60
2022-08-30T06:07:03.685Z,54.97
2022-08-30T06:09:30.741Z,55.01
2022-08-30T06:11:58.088Z,54.67
2022-08-30T06:14:28.819Z,54.93
2022-08-30T06:16:55.309Z,55.00
2022-08-30T06:19:23.142Z,54.73
2022-08-30T06:21:51.221Z,54.93
2022-08-30T06:24:20.768Z,54.86
2022-08-30T06:26:51.357Z,54.54
2022-08-30T06:29:19.866Z,54.68
2022-08-30T06:31:47.425Z,55.11
2022-08-30T06:34:17.210Z,54.58
2022-08-30T06:36:43.765Z,54.72
2022-08-30T06:39:10.874Z,54.72
2022-08-30T06:41:41.456Z,55.20
2022-08-30T06:44:45.637Z,55.22
2022-08-30T06:47:12.450Z,54.78
2022-08-30T06:49:38.996Z,54.65
2022-08-30T06:52:07.363Z,54.72
2022-08-30T06:54:34.462Z,54.54
2022-08-30T06:57:01.898Z,54.52
2022-08-30T06:59:28.489Z,54.27
2022-08-30T07:01:55.934Z,54.34
2022-08-30T07:04:25.055Z,54.40
2022-08-30T07:06:52.033Z,54.05
2022-08-30T07:09:19.447Z,53.83
2022-08-30T07:11:49.651Z,53.92
2022-08-30T07:14:19.121Z,53.36
2022-08-30T07:16:47.081Z,53.15
2022-08-30T07:19:20.294Z,53.31
2022-08-30T07:21:49.516Z,52.76
2022-08-30T07:24:41.574Z,52.75
2022-08-30T07:27:08.146Z,52.51
2022-08-30T07:29:34.642Z,52.22
2022-08-30T07:32:01.174Z,52.09
2022-08-30T07:34:27.693Z,51.83
2022-08-30T07:36:54.201Z,51.23
2022-08-30T07:39:20.932Z,50.97
2022-08-30T07:41:48.647Z,50.47
2022-08-30T07:44:16.875Z,50.21
2022-08-30T07:46:43.674Z,50.27
2022-08-30T07:49:11.843Z,50.02
2022-08-30T07:51:39.746Z,49.21
2022-08-30T07:54:10.543Z,49.20
2022-08-30T07:56:37.331Z,49.05
2022-08-30T07:59:04.546Z,48.93
2022-08-30T08:01:31.590Z,48.59
2022-08-30T08:03:59.866Z,48.19
2022-08-30T08:06:27.648Z,48.03
2022-08-30T08:09:02.289Z,47.47
2022-08-30T08:11:33.448Z,47.08
2022-08-30T08:14:03.715Z,46.63
2022-08-30T08:16:33.679Z,46.60
2022-08-30T08:19:00.561Z,46.33
2022-08-30T08:21:27.818Z,46.28
2022-08-30T08:23:55.252Z,46.00
2022-08-30T08:26:22.421Z,45.56
2022-08-30T08:28:49.454Z,45.45
2022-08-30T08:31:18.759Z,45.15
2022-08-30T08:33:47.268Z,44.87
2022-08-30T08:36:14.830Z,45.01
2022-08-30T08:38:41.487Z,44.57
2022-08-30T08:41:19.798Z,44.50
2022-08-30T08:43:47.977Z,44.20
2022-08-30T08:46:45.322Z,44.25
2022-08-30T08:49:12.473Z,44.03
2022-08-30T08:51:58.218Z,43.77
2022-08-30T08:54:48.582Z,43.60
2022-08-30T08:57:16.588Z,43.34
2022-08-30T08:59:45.007Z,43.21
2022-08-30T09:02:27.528Z,42.68
2022-08-30T09:04:59.555Z,42.59
2022-08-30T09:07:39.785Z,42.47
2022-08-30T09:10:06.800Z,42.13
2022-08-30T09:12:33.538Z,42.33
2022-08-30T09:15:25.136Z,41.80
2022-08-30T09:17:56.381Z,41.75
2022-08-30T09:20:34.886Z,41.88
2022-08-30T09:23:30.486Z,41.30
2022-08-30T09:26:01.671Z,41.44
2022-08-30T09:28:35.160Z,41.10
2022-08-30T09:31:21.282Z,40.95
2022-08-30T09:34:05.756Z,40.67
2022-08-30T09:36:43.947Z,40.75
2022-08-30T09:39:27.606Z,40.34
2022-08-30T09:41:55.639Z,40.17
2022-08-30T09:44:31.534Z,40.02
2022-08-30T09:47:01.145Z,40.01
2022-08-30T09:49:35.622Z,39.71
2022-08-30T09:52:12.044Z,39.58
2022-08-30T09:55:02.062Z,39.24
2022-08-30T09:57:47.606Z,39.16
2022-08-30T10:00:21.404Z,38.77
2022-08-30T10:03:07.505Z,38.65
2022-08-30T10:06:10.816Z,38.42
2022-08-30T10:08:56.170Z,38.06
2022-08-30T10:11:32.018Z,38.17
2022-08-30T10:14:18.720Z,38.07
2022-08-30T10:16:53.488Z,37.90
2022-08-30T10:19:39.797Z,38.18
2022-08-30T10:22:24.983Z,37.99
2022-08-30T10:24:58.027Z,37.75
2022-08-30T10:27:38.625Z,37.51
2022-08-30T10:30:07.911Z,37.42
2022-08-30T10:32:43.204Z,37.00
2022-08-30T10:35:19.595Z,37.11
2022-08-30T10:37:58.265Z,36.92
2022-08-30T10:40:52.758Z,36.53
2022-08-30T10:43:52.771Z,36.50
2022-08-30T10:46:25.270Z,36.64
2022-08-30T10:48:53.905Z,36.20
2022-08-30T10:51:29.076Z,35.95
2022-08-30T10:54:13.984Z,35.97
2022-08-30T10:56:50.583Z,35.92
2022-08-30T10:59:19.266Z,35.69
2022-08-30T11:02:03.967Z,35.36
2022-08-30T11:05:00.694Z,35.11
2022-08-30T11:07:33.514Z,35.04
2022-08-30T11:10:09.076Z,34.79
2022-08-30T11:12:51.813Z,34.71
2022-08-30T11:15:22.415Z,34.59
2022-08-30T11:18:01.315Z,34.53
2022-08-30T11:20:36.752Z,34.47
2022-08-30T11:23:33.818Z,34.20
2022-08-30T11:26:05.380Z,34.09
2022-08-30T11:28:38.386Z,33.92
2022-08-30T11:31:20.466Z,33.61
2022-08-30T11:34:12.386Z,33.58
2022-08-30T11:39:52.038Z,33.09
2022-08-30T11:42:38.717Z,32.85
2022-08-30T11:45:22.006Z,32.64
2022-08-30T11:48:05.854Z,32.81
2022-08-30T11:50:53.987Z,32.70
2022-08-30T11:53:37.191Z,32.42
2022-08-30T11:56:13.081Z,32.31
2022-08-30T11:58:48.671Z,31.89
2022-08-30T12:01:50.191Z,31.85
2022-08-30T12:04:37.765Z,31.54
2022-08-30T12:07:08.185Z,31.39
2022-08-30T12:09:35.150Z,31.38
2022-08-30T12:12:12.435Z,31.10
2022-08-30T12:14:55.000Z,30.95
2022-08-30T12:18:15.352Z,30.69
2022-08-30T12:20:48.344Z,30.59
2022-08-30T12:23:44.429Z,30.76
2022-08-30T12:26:34.482Z,30.68
2022-08-30T12:29:10.129Z,30.25
2022-08-30T12:31:53.757Z,29.83
2022-08-30T12:34:26.320Z,30.24
2022-08-30T12:36:58.400Z,30.10
2022-08-30T12:39:31.853Z,29.92
2022-08-30T12:42:22.322Z,29.72
2022-08-30T12:44:52.258Z,29.80
2022-08-30T12:47:25.639Z,29.68
2022-08-30T12:49:53.928Z,29.76
2022-08-30T12:52:26.329Z,29.45
2022-08-30T12:54:55.133Z,29.66
2022-08-30T12:57:39.203Z,29.52
2022-08-30T13:00:08.547Z,29.34
2022-08-30T13:02:52.601Z,29.55
2022-08-30T13:05:45.575Z,29.23
2022-08-30T13:08:37.451Z,29.36
2022-08-30T13:11:24.808Z,28.89
2022-08-30T13:14:30.569Z,28.86
2022-08-30T13:17:20.433Z,28.63
2022-08-30T13:20:05.841Z,28.57
2022-08-30T13:22:59.516Z,28.41
2022-08-30T13:25:28.861Z,28.73
2022-08-30T13:27:55.430Z,28.58
2022-08-30T13:30:22.289Z,28.63
2022-08-30T13:32:50.084Z,27.85
2022-08-30T13:35:16.871Z,27.82
2022-08-30T13:37:50.526Z,27.80
2022-08-30T13:40:20.998Z,28.16
2022-08-30T13:42:48.569Z,27.67
2022-08-30T13:48:03.926Z,28.04
2022-08-30T13:50:30.849Z,28.07
2022-08-30T13:52:57.674Z,27.92
2022-08-30T13:55:24.658Z,28.04
2022-08-30T13:57:55.296Z,27.69
2022-08-30T14:00:24.937Z,27.94
2022-08-30T14:02:57.764Z,27.75
2022-08-30T14:06:09.917Z,27.60
2022-08-30T14:11:18.575Z,27.81
2022-08-30T14:16:39.455Z,27.79
2022-08-30T14:19:06.579Z,27.21
2022-08-30T14:21:35.494Z,27.19
2022-08-30T14:24:06.777Z,27.29
2022-08-30T14:26:40.716Z,26.87
2022-08-30T14:29:10.496Z,26.71
2022-08-30T14:31:39.033Z,26.85
2022-08-30T14:34:08.574Z,27.00
2022-08-30T14:36:36.861Z,27.08
2022-08-30T14:39:09.573Z,26.82
2022-08-30T14:41:43.709Z,26.97
2022-08-30T14:44:16.973Z,26.95
2022-08-30T14:46:44.098Z,26.78
2022-08-30T14:49:12.476Z,27.20
2022-08-30T14:51:39.888Z,27.05
2022-08-30T14:54:08.997Z,26.85
2022-08-30T14:56:37.733Z,27.17
2022-08-30T14:59:04.453Z,27.32
2022-08-30T15:01:31.736Z,26.90
2022-08-30T15:04:07.410Z,27.06
2022-08-30T15:06:35.885Z,27.12
2022-08-30T15:09:03.595Z,26.80
2022-08-30T15:11:30.537Z,26.99
2022-08-30T15:14:05.876Z,26.64
2022-08-30T15:16:35.768Z,26.78
2022-08-30T15:19:04.212Z,27.01
2022-08-30T15:21:34.561Z,27.03
2022-08-30T15:24:09.118Z,27.20
2022-08-30T15:26:36.675Z,27.49
2022-08-30T15:29:03.864Z,27.49
2022-08-30T15:31:31.830Z,27.34
2022-08-30T15:34:01.721Z,27.48
2022-08-30T15:36:29.239Z,27.36
2022-08-30T15:38:57.189Z,27.54
2022-08-30T15:41:24.466Z,27.65
2022-08-30T15:43:57.241Z,27.89
2022-08-30T15:46:29.944Z,27.80
2022-08-30T15:49:00.971Z,27.78
2022-08-30T15:51:28.653Z,27.82
2022-08-30T15:53:59.136Z,28.02
2022-08-30T15:56:26.055Z,27.93
2022-08-30T15:58:53.167Z,27.71
2022-08-30T16:01:30.087Z,28.24
2022-08-30T16:04:00.804Z,28.07
2022-08-30T16:06:34.741Z,28.11
2022-08-30T16:09:01.615Z,28.10
2022-08-30T16:11:28.322Z,28.32
2022-08-30T16:13:56.965Z,28.38
2022-08-30T16:16:24.678Z,28.54
2022-08-30T16:18:53.710Z,28.67
2022-08-30T16:21:29.572Z,28.56
2022-08-30T16:24:01.590Z,28.57
2022-08-30T16:26:29.712Z,28.73
2022-08-30T16:28:56.939Z,28.73
2022-08-30T16:31:26.096Z,28.77
2022-08-30T16:34:02.795Z,28.85
2022-08-30T16:36:32.271Z,28.82
2022-08-30T16:38:59.269Z,29.00
2022-08-30T16:41:26.182Z,28.99
2022-08-30T16:43:53.868Z,28.96
2022-08-30T16:46:26.915Z,28.97
2022-08-30T16:48:57.021Z,29.03
2022-08-30T16:51:26.249Z,29.18
2022-08-30T16:53:58.635Z,29.12
2022-08-30T16:56:27.175Z,29.19
2022-08-30T16:59:01.376Z,29.25
2022-08-30T17:01:30.721Z,29.31
2022-08-30T17:03:58.630Z,29.40
2022-08-30T17:06:25.152Z,29.28
2022-08-30T17:08:52.565Z,29.41
2022-08-30T17:11:23.770Z,29.42
2022-08-30T17:13:54.998Z,29.37
2022-08-30T17:16:27.896Z,29.48
2022-08-30T17:18:59.595Z,29.66
2022-08-30T17:21:28.760Z,29.81
2022-08-30T17:23:58.458Z,29.75
2022-08-30T17:26:32.869Z,29.72
2022-08-30T17:29:00.107Z,29.91
2022-08-30T17:31:29.087Z,29.67
2022-08-30T17:34:02.815Z,29.71
2022-08-30T17:36:31.791Z,29.89
2022-08-30T17:38:58.350Z,29.65
2022-08-30T17:41:25.248Z,29.34
2022-08-30T17:43:55.741Z,29.81
2022-08-30T17:46:22.601Z,29.65
2022-08-30T17:48:57.977Z,29.91
2022-08-30T17:51:29.426Z,30.02
2022-08-30T17:54:00.955Z,29.93
2022-08-30T17:56:34.362Z,29.84
2022-08-30T17:59:04.781Z,30.10
2022-08-30T18:01:31.738Z,29.92
2022-08-30T18:04:05.929Z,29.87
2022-08-30T18:06:33.570Z,30.04
2022-08-30T18:09:01.410Z,30.20
2022-08-30T18:11:28.134Z,29.95
2022-08-30T18:13:54.633Z,30.15
2022-08-30T18:16:26.406Z,30.52
2022-08-30T18:18:57.265Z,30.36
2022-08-30T18:21:25.298Z,30.51
2022-08-30T18:23:53.431Z,30.41
2022-08-30T18:26:24.138Z,30.54
2022-08-30T18:28:51.411Z,30.55
2022-08-30T18:31:18.198Z,30.52
2022-08-30T18:33:49.225Z,30.64
2022-08-30T18:36:17.010Z,30.82
2022-08-30T18:38:44.394Z,30.75
2022-08-30T18:41:15.916Z,30.62
2022-08-30T18:43:46.857Z,30.99
2022-08-30T18:46:16.139Z,31.07
2022-08-30T18:48:46.107Z,31.19
2022-08-30T18:51:19.089Z,31.03
2022-08-30T18:53:49.879Z,31.03
2022-08-30T18:56:17.036Z,30.97
2022-08-30T18:58:44.837Z,31.10
2022-08-30T19:01:12.830Z,31.31
2022-08-30T19:03:43.746Z,31.15
2022-08-30T19:06:11.911Z,31.52
2022-08-30T19:08:40.227Z,31.54
2022-08-30T19:11:07.759Z,31.67
2022-08-30T19:13:46.712Z,31.65
2022-08-30T19:16:13.358Z,31.49
2022-08-30T19:18:40.356Z,31.79
2022-08-30T19:21:07.224Z,32.06
2022-08-30T19:23:43.393Z,31.99
2022-08-30T19:26:10.938Z,31.89
2022-08-30T19:28:37.888Z,32.29
2022-08-30T19:31:04.694Z,32.39
2022-08-30T19:33:33.873Z,32.30
2022-08-30T19:36:00.609Z,32.55
2022-08-30T19:38:27.246Z,32.42
2022-08-30T19:41:00.014Z,32.78
2022-08-30T19:43:28.217Z,32.85
2022-08-30T19:45:59.835Z,32.70
2022-08-30T19:48:32.280Z,33.27
2022-08-30T19:50:59.857Z,33.11
2022-08-30T19:53:28.429Z,33.47
2022-08-30T19:55:54.937Z,33.68
2022-08-30T19:58:21.426Z,33.65
2022-08-30T20:01:00.888Z,33.46
2022-08-30T20:03:38.081Z,33.63
2022-08-30T20:06:07.786Z,33.58
2022-08-30T20:08:35.634Z,33.75
2022-08-30T20:11:02.344Z,33.65
2022-08-30T20:13:34.170Z,33.73
2022-08-30T20:16:01.261Z,33.71
2022-08-30T20:18:28.860Z,33.85
2022-08-30T20:20:55.441Z,34.00
2022-08-30T20:23:25.608Z,34.01
2022-08-30T20:25:54.371Z,34.19
2022-08-30T20:28:21.710Z,34.16
2022-08-30T20:30:49.109Z,34.23
2022-08-30T20:33:18.574Z,34.53
2022-08-30T20:35:48.973Z,34.42
2022-08-30T20:38:25.401Z,34.29
2022-08-30T20:40:59.306Z,34.29
2022-08-30T20:43:30.539Z,34.75
2022-08-30T20:45:57.318Z,34.74
2022-08-30T20:48:27.004Z,34.47
2022-08-30T20:50:53.582Z,34.63
2022-08-30T20:53:24.414Z,34.77
2022-08-30T20:55:50.906Z,34.97
2022-08-30T20:58:17.707Z,34.79
2022-08-30T21:00:50.078Z,34.71
2022-08-30T21:03:27.412Z,35.12
2022-08-30T21:05:55.122Z,35.20
2022-08-30T21:08:21.737Z,34.87
2022-08-30T21:10:48.266Z,35.06
2022-08-30T21:13:16.465Z,35.06
2022-08-30T21:15:46.296Z,35.51
2022-08-30T21:18:16.060Z,35.21
2022-08-30T21:20:42.681Z,35.19
2022-08-30T21:23:12.502Z,35.67
2022-08-30T21:25:40.767Z,35.45
2022-08-30T21:28:07.599Z,35.91
2022-08-30T21:30:35.613Z,36.06
2022-08-30T21:33:04.354Z,35.89
2022-08-30T21:35:50.017Z,36.43
2022-08-30T21:38:17.389Z,36.48
2022-08-30T21:40:44.374Z,36.57
2022-08-30T21:43:22.773Z,37.00
2022-08-30T21:45:51.233Z,36.69
2022-08-30T21:48:18.054Z,37.25
2022-08-30T21:50:46.418Z,37.35
2022-08-30T21:53:17.106Z,37.41
2022-08-30T21:55:43.945Z,37.77
2022-08-30T21:58:11.058Z,37.76
2022-08-30T22:00:37.615Z,37.95
2022-08-30T22:03:04.339Z,38.02
2022-08-30T22:05:31.249Z,38.33
2022-08-30T22:08:01.037Z,38.22
2022-08-30T22:10:32.409Z,38.48
2022-08-30T22:13:00.372Z,38.50
2022-08-30T22:15:28.175Z,38.62
2022-08-30T22:17:58.432Z,39.13
2022-08-30T22:20:31.335Z,39.02
2022-08-30T22:22:58.687Z,39.41
2022-08-30T22:25:26.621Z,39.07
2022-08-30T22:27:53.145Z,39.42
2022-08-30T22:30:19.659Z,39.46
2022-08-30T22:32:46.319Z,39.48
2022-08-30T22:35:13.081Z,39.82
2022-08-30T22:37:41.665Z,39.88
2022-08-30T22:40:14.180Z,40.21
2022-08-30T22:42:40.763Z,40.29
2022-08-30T22:45:15.062Z,40.30
2022-08-30T22:47:41.648Z,40.48
2022-08-30T22:50:10.346Z,40.39
2022-08-30T22:52:36.889Z,40.54
2022-08-30T22:55:04.249Z,40.71
2022-08-30T22:57:31.188Z,40.86
2022-08-30T22:59:57.665Z,41.11
2022-08-30T23:02:24.843Z,41.00
2022-08-30T23:04:55.870Z,41.15
2022-08-30T23:07:22.434Z,41.59
2022-08-30T23:09:48.910Z,41.23
2022-08-30T23:12:15.394Z,41.50
2022-08-30T23:14:42.269Z,41.58
2022-08-30T23:17:09.509Z,41.84
2022-08-30T23:19:35.984Z,41.76
2022-08-30T23:22:02.483Z,41.59
2022-08-30T23:24:56.621Z,41.91
2022-08-30T23:27:43.325Z,41.52
2022-08-30T23:30:29.296Z,41.71
2022-08-30T23:33:14.966Z,41.94
2022-08-30T23:36:00.181Z,41.78
2022-08-30T23:38:45.228Z,41.63
2022-08-30T23:41:34.129Z,41.82
2022-08-30T23:44:20.878Z,42.03
2022-08-30T23:47:06.223Z,42.19
2022-08-30T23:49:51.273Z,42.54
2022-08-30T23:52:36.377Z,42.37
2022-08-30T23:55:24.099Z,42.41
2022-08-30T23:58:08.851Z,42.40
